createdAt,value
2023-09-17T10:10:02.082Z,67.40
2023-09-17T10:20:13.474Z,65.92
2023-09-17T10:30:16.236Z,67.85
2023-09-17T10:40:19.638Z,68.31
2023-09-17T10:50:31.244Z,70.50
2023-09-17T11:00:36.790Z,68.97
2023-09-17T11:10:43.544Z,69.96
2023-09-17T11:20:54.785Z,70.51
2023-09-17T11:30:59.617Z,71.44
2023-09-17T11:41:07.727Z,71.67
2023-09-17T11:51:17.763Z,71.55
2023-09-17T12:01:20.865Z,75.95
2023-09-17T12:11:37.789Z,72.04
2023-09-17T12:21:42.703Z,71.03
2023-09-17T12:31:53.789Z,71.25
2023-09-17T12:41:58.682Z,70.90
2023-09-17T12:52:06.492Z,72.46
2023-09-17T13:02:18.568Z,71.20
2023-09-17T13:12:20.091Z,70.85
2023-09-17T13:32:50.598Z,77.24
2023-09-17T13:42:52.251Z,76.68
2023-09-17T13:52:53.721Z,75.64
2023-09-17T14:02:58.919Z,74.19
2023-09-17T14:13:10.287Z,73.20
2023-09-17T14:23:12.698Z,72.78
2023-09-17T14:33:24.510Z,72.18
2023-09-17T14:43:28.052Z,72.11
2023-09-17T14:53:36.998Z,71.33
2023-09-17T15:03:49.877Z,71.74
2023-09-17T15:24:20.261Z,68.37
2023-09-17T15:34:22.005Z,68.00
2023-09-17T15:44:29.679Z,67.91
2023-09-17T15:54:38.645Z,67.84
2023-09-17T16:04:47.680Z,67.78
2023-09-17T16:14:51.696Z,67.54
2023-09-17T16:24:59.801Z,67.46
2023-09-17T16:35:09.745Z,67.41
2023-09-17T16:45:17.446Z,67.55
2023-09-17T16:55:25.674Z,67.20
2023-09-17T17:05:34.641Z,67.27
2023-09-17T17:15:47.858Z,66.91
2023-09-17T17:25:50.740Z,67.49
2023-09-17T17:35:58.085Z,67.15
2023-09-17T17:46:07.698Z,67.17
2023-09-17T17:56:09.065Z,67.00
2023-09-17T18:06:10.409Z,66.80
2023-09-17T18:16:11.806Z,66.76
2023-09-17T18:26:13.211Z,67.20
2023-09-17T18:36:14.569Z,66.87
2023-09-17T18:46:15.919Z,67.08
2023-09-17T18:56:17.368Z,67.04
2023-09-17T19:06:18.724Z,67.47
2023-09-17T19:26:36.317Z,66.60
2023-09-17T19:36:39.122Z,66.80
2023-09-17T19:46:40.525Z,65.79
2023-09-17T19:56:41.957Z,66.30
2023-09-17T20:06:53.885Z,66.17
2023-09-17T20:16:56.792Z,66.16
2023-09-17T20:26:58.191Z,66.43
2023-09-17T20:36:59.530Z,66.09
2023-09-17T20:47:00.887Z,67.05
2023-09-17T20:57:02.231Z,66.12
2023-09-17T21:07:03.581Z,66.41
2023-09-17T21:17:04.916Z,66.47
2023-09-17T21:27:06.276Z,66.61
2023-09-17T21:37:07.576Z,67.20
2023-09-17T21:47:08.921Z,67.04
2023-09-17T21:57:10.272Z,67.34
2023-09-17T22:07:11.580Z,67.09
2023-09-17T22:17:12.927Z,67.00
2023-09-17T22:27:15.977Z,67.06
2023-09-17T22:37:19.744Z,67.23
2023-09-17T22:47:21.091Z,67.28
2023-09-17T22:57:22.437Z,66.78
2023-09-17T23:07:23.764Z,67.06
2023-09-17T23:17:25.176Z,67.11
2023-09-17T23:27:26.666Z,68.34
2023-09-17T23:37:27.988Z,67.25
2023-09-17T23:47:29.456Z,67.22
2023-09-17T23:57:30.867Z,67.17
